sensor_id;sensor_type;location;lat;lon;timestamp;P1;durP1;ratioP1;P2;durP2;ratioP2
80898;SDS011;70349;49.210;-122.932;2023-08-17T00:23:18;4.30;;;3.03;;
80898;SDS011;70349;49.210;-122.932;2023-08-17T00:25:46;4.78;;;3.20;;
80898;SDS011;70349;49.210;-122.932;2023-08-17T00:28:18;4.90;;;2.85;;
80898;SDS011;70349;49.210;-122.932;2023-08-17T00:30:44;5.10;;;3.50;;
80898;SDS011;70349;49.210;-122.932;2023-08-17T00:33:11;5.72;;;3.30;;
80898;SDS011;70349;49.210;-122.932;2023-08-17T00:35:37;4.82;;;3.20;;
80898;SDS011;70349;49.210;-122.932;2023-08-17T00:38:06;4.90;;;3.28;;
80898;SDS011;70349;49.210;-122.932;2023-08-17T00:40:32;4.53;;;3.25;;
80898;SDS011;70349;49.210;-122.932;2023-08-17T00:43:01;4.60;;;3.00;;
80898;SDS011;70349;49.210;-122.932;2023-08-17T00:45:27;6.30;;;3.20;;
80898;SDS011;70349;49.210;-122.932;2023-08-17T00:47:59;5.82;;;2.60;;
80898;SDS011;70349;49.210;-122.932;2023-08-17T00:50:26;6.53;;;3.05;;
80898;SDS011;70349;49.210;-122.932;2023-08-17T00:52:56;4.82;;;3.75;;
80898;SDS011;70349;49.210;-122.932;2023-08-17T00:55:22;7.70;;;4.30;;
80898;SDS011;70349;49.210;-122.932;2023-08-17T00:57:49;4.80;;;2.88;;
80898;SDS011;70349;49.210;-122.932;2023-08-17T01:00:19;4.35;;;2.72;;
80898;SDS011;70349;49.210;-122.932;2023-08-17T01:02:46;4.35;;;2.70;;
80898;SDS011;70349;49.210;-122.932;2023-08-17T01:05:13;3.80;;;2.53;;
80898;SDS011;70349;49.210;-122.932;2023-08-17T01:07:39;4.47;;;3.40;;
80898;SDS011;70349;49.210;-122.932;2023-08-17T01:10:05;4.13;;;2.80;;
80898;SDS011;70349;49.210;-122.932;2023-08-17T01:12:35;3.95;;;2.65;;
80898;SDS011;70349;49.210;-122.932;2023-08-17T01:20:10;4.00;;;2.90;;
80898;SDS011;70349;49.210;-122.932;2023-08-17T01:22:40;3.33;;;2.20;;
80898;SDS011;70349;49.210;-122.932;2023-08-17T01:25:10;4.57;;;2.53;;
80898;SDS011;70349;49.210;-122.932;2023-08-17T01:27:43;4.97;;;2.60;;
80898;SDS011;70349;49.210;-122.932;2023-08-17T01:30:13;3.47;;;3.10;;
80898;SDS011;70349;49.210;-122.932;2023-08-17T01:32:53;4.35;;;3.38;;
80898;SDS011;70349;49.210;-122.932;2023-08-17T01:35:26;3.80;;;2.40;;
80898;SDS011;70349;49.210;-122.932;2023-08-17T01:38:01;3.38;;;2.55;;
80898;SDS011;70349;49.210;-122.932;2023-08-17T01:40:33;4.00;;;3.15;;
80898;SDS011;70349;49.210;-122.932;2023-08-17T01:43:00;4.38;;;3.25;;
80898;SDS011;70349;49.210;-122.932;2023-08-17T01:45:32;5.18;;;2.90;;
80898;SDS011;70349;49.210;-122.932;2023-08-17T01:48:00;4.13;;;2.58;;
80898;SDS011;70349;49.210;-122.932;2023-08-17T01:50:26;5.40;;;2.58;;
80898;SDS011;70349;49.210;-122.932;2023-08-17T01:52:53;3.67;;;2.40;;
80898;SDS011;70349;49.210;-122.932;2023-08-17T01:55:20;4.50;;;2.78;;
80898;SDS011;70349;49.210;-122.932;2023-08-17T01:57:48;4.35;;;2.67;;
80898;SDS011;70349;49.210;-122.932;2023-08-17T02:00:15;4.10;;;3.13;;
80898;SDS011;70349;49.210;-122.932;2023-08-17T02:02:41;4.00;;;2.70;;
80898;SDS011;70349;49.210;-122.932;2023-08-17T02:05:14;3.70;;;2.65;;
80898;SDS011;70349;49.210;-122.932;2023-08-17T02:07:40;4.22;;;2.75;;
80898;SDS011;70349;49.210;-122.932;2023-08-17T02:10:07;4.00;;;2.40;;
80898;SDS011;70349;49.210;-122.932;2023-08-17T02:12:34;4.22;;;3.00;;
80898;SDS011;70349;49.210;-122.932;2023-08-17T02:15:03;4.80;;;2.97;;
80898;SDS011;70349;49.210;-122.932;2023-08-17T02:17:32;4.40;;;2.97;;
80898;SDS011;70349;49.210;-122.932;2023-08-17T02:20:03;3.72;;;2.15;;
80898;SDS011;70349;49.210;-122.932;2023-08-17T02:22:36;4.47;;;2.70;;
80898;SDS011;70349;49.210;-122.932;2023-08-17T02:25:03;4.93;;;2.83;;
80898;SDS011;70349;49.210;-122.932;2023-08-17T02:27:29;5.28;;;2.47;;
80898;SDS011;70349;49.210;-122.932;2023-08-17T02:29:58;3.75;;;2.33;;
80898;SDS011;70349;49.210;-122.932;2023-08-17T02:32:26;4.93;;;2.78;;
80898;SDS011;70349;49.210;-122.932;2023-08-17T02:34:53;5.18;;;2.70;;
80898;SDS011;70349;49.210;-122.932;2023-08-17T02:37:19;3.92;;;2.75;;
80898;SDS011;70349;49.210;-122.932;2023-08-17T02:39:47;3.80;;;2.60;;
80898;SDS011;70349;49.210;-122.932;2023-08-17T02:42:14;4.10;;;2.92;;
80898;SDS011;70349;49.210;-122.932;2023-08-17T02:44:40;4.50;;;2.45;;
80898;SDS011;70349;49.210;-122.932;2023-08-17T02:47:06;6.38;;;3.03;;
80898;SDS011;70349;49.210;-122.932;2023-08-17T02:49:32;4.65;;;2.53;;
80898;SDS011;70349;49.210;-122.932;2023-08-17T02:52:01;4.00;;;2.60;;
80898;SDS011;70349;49.210;-122.932;2023-08-17T02:54:29;7.55;;;5.95;;
80898;SDS011;70349;49.210;-122.932;2023-08-17T02:56:58;4.20;;;3.20;;
80898;SDS011;70349;49.210;-122.932;2023-08-17T02:59:25;5.05;;;2.88;;
80898;SDS011;70349;49.210;-122.932;2023-08-17T03:01:52;4.38;;;3.00;;
80898;SDS011;70349;49.210;-122.932;2023-08-17T03:06:45;4.93;;;2.92;;
80898;SDS011;70349;49.210;-122.932;2023-08-17T03:09:12;3.97;;;2.75;;
80898;SDS011;70349;49.210;-122.932;2023-08-17T03:11:40;6.15;;;3.13;;
80898;SDS011;70349;49.210;-122.932;2023-08-17T03:16:32;4.15;;;2.90;;
80898;SDS011;70349;49.210;-122.932;2023-08-17T03:19:03;4.38;;;3.08;;
80898;SDS011;70349;49.210;-122.932;2023-08-17T03:21:29;7.88;;;3.72;;
80898;SDS011;70349;49.210;-122.932;2023-08-17T03:23:55;4.75;;;3.53;;
80898;SDS011;70349;49.210;-122.932;2023-08-17T03:26:21;4.82;;;2.83;;
80898;SDS011;70349;49.210;-122.932;2023-08-17T03:28:48;4.38;;;2.95;;
80898;SDS011;70349;49.210;-122.932;2023-08-17T03:31:16;4.85;;;2.85;;
80898;SDS011;70349;49.210;-122.932;2023-08-17T03:33:42;4.15;;;2.60;;
80898;SDS011;70349;49.210;-122.932;2023-08-17T03:36:09;4.18;;;2.50;;
80898;SDS011;70349;49.210;-122.932;2023-08-17T03:38:35;5.05;;;3.35;;
80898;SDS011;70349;49.210;-122.932;2023-08-17T03:41:03;4.53;;;3.13;;
80898;SDS011;70349;49.210;-122.932;2023-08-17T03:43:29;4.07;;;2.20;;
80898;SDS011;70349;49.210;-122.932;2023-08-17T03:45:58;6.32;;;2.90;;
80898;SDS011;70349;49.210;-122.932;2023-08-17T03:50:51;5.25;;;2.90;;
80898;SDS011;70349;49.210;-122.932;2023-08-17T03:53:18;3.78;;;2.60;;
80898;SDS011;70349;49.210;-122.932;2023-08-17T03:55:48;3.33;;;2.67;;
80898;SDS011;70349;49.210;-122.932;2023-08-17T03:58:15;11.70;;;3.97;;
80898;SDS011;70349;49.210;-122.932;2023-08-17T04:00:41;4.95;;;3.28;;
80898;SDS011;70349;49.210;-122.932;2023-08-17T04:03:08;5.90;;;3.75;;
80898;SDS011;70349;49.210;-122.932;2023-08-17T04:05:37;5.75;;;3.47;;
80898;SDS011;70349;49.210;-122.932;2023-08-17T04:08:03;8.13;;;3.55;;
80898;SDS011;70349;49.210;-122.932;2023-08-17T04:10:29;5.07;;;3.22;;
80898;SDS011;70349;49.210;-122.932;2023-08-17T04:12:59;5.90;;;3.13;;
80898;SDS011;70349;49.210;-122.932;2023-08-17T04:15:25;7.25;;;4.55;;
80898;SDS011;70349;49.210;-122.932;2023-08-17T04:17:53;11.15;;;4.85;;
80898;SDS011;70349;49.210;-122.932;2023-08-17T04:20:25;7.47;;;3.90;;
80898;SDS011;70349;49.210;-122.932;2023-08-17T04:22:54;5.82;;;3.65;;
80898;SDS011;70349;49.210;-122.932;2023-08-17T04:25:20;4.38;;;3.15;;
80898;SDS011;70349;49.210;-122.932;2023-08-17T04:27:48;5.13;;;3.30;;
80898;SDS011;70349;49.210;-122.932;2023-08-17T04:30:14;6.28;;;3.45;;
80898;SDS011;70349;49.210;-122.932;2023-08-17T04:32:41;5.55;;;3.70;;
80898;SDS011;70349;49.210;-122.932;2023-08-17T04:35:10;4.03;;;3.38;;
80898;SDS011;70349;49.210;-122.932;2023-08-17T04:37:36;4.15;;;3.33;;
80898;SDS011;70349;49.210;-122.932;2023-08-17T04:40:05;5.95;;;3.85;;
80898;SDS011;70349;49.210;-122.932;2023-08-17T04:42:35;4.97;;;3.67;;
80898;SDS011;70349;49.210;-122.932;2023-08-17T04:45:05;4.32;;;2.92;;
80898;SDS011;70349;49.210;-122.932;2023-08-17T04:47:32;4.38;;;3.97;;
80898;SDS011;70349;49.210;-122.932;2023-08-17T04:50:00;5.95;;;3.88;;
80898;SDS011;70349;49.210;-122.932;2023-08-17T04:52:27;5.05;;;3.58;;
80898;SDS011;70349;49.210;-122.932;2023-08-17T04:54:53;4.50;;;4.00;;
80898;SDS011;70349;49.210;-122.932;2023-08-17T04:57:22;7.65;;;6.85;;
80898;SDS011;70349;49.210;-122.932;2023-08-17T04:59:49;5.60;;;5.05;;
80898;SDS011;70349;49.210;-122.932;2023-08-17T05:02:16;7.45;;;3.90;;
80898;SDS011;70349;49.210;-122.932;2023-08-17T05:04:43;4.25;;;2.58;;
80898;SDS011;70349;49.210;-122.932;2023-08-17T05:07:09;5.07;;;3.45;;
80898;SDS011;70349;49.210;-122.932;2023-08-17T05:09:35;6.07;;;3.78;;
80898;SDS011;70349;49.210;-122.932;2023-08-17T05:12:02;5.80;;;4.00;;
80898;SDS011;70349;49.210;-122.932;2023-08-17T05:14:28;5.35;;;3.60;;
80898;SDS011;70349;49.210;-122.932;2023-08-17T05:16:54;5.47;;;3.95;;
80898;SDS011;70349;49.210;-122.932;2023-08-17T05:19:23;4.55;;;3.40;;
80898;SDS011;70349;49.210;-122.932;2023-08-17T05:21:49;6.50;;;4.10;;
80898;SDS011;70349;49.210;-122.932;2023-08-17T05:24:16;5.95;;;3.95;;
80898;SDS011;70349;49.210;-122.932;2023-08-17T05:26:43;6.57;;;3.47;;
80898;SDS011;70349;49.210;-122.932;2023-08-17T05:29:09;5.22;;;3.33;;
80898;SDS011;70349;49.210;-122.932;2023-08-17T05:31:40;6.40;;;3.83;;
80898;SDS011;70349;49.210;-122.932;2023-08-17T05:34:09;5.35;;;4.43;;
80898;SDS011;70349;49.210;-122.932;2023-08-17T05:36:38;10.95;;;7.03;;
80898;SDS011;70349;49.210;-122.932;2023-08-17T05:39:06;6.03;;;4.88;;
80898;SDS011;70349;49.210;-122.932;2023-08-17T05:41:35;6.68;;;5.93;;
80898;SDS011;70349;49.210;-122.932;2023-08-17T05:44:06;4.80;;;3.97;;
80898;SDS011;70349;49.210;-122.932;2023-08-17T05:46:37;54.20;;;17.02;;
80898;SDS011;70349;49.210;-122.932;2023-08-17T05:49:08;4.72;;;4.00;;
80898;SDS011;70349;49.210;-122.932;2023-08-17T05:54:00;4.55;;;3.97;;
80898;SDS011;70349;49.210;-122.932;2023-08-17T05:56:29;4.13;;;3.35;;
80898;SDS011;70349;49.210;-122.932;2023-08-17T05:58:58;4.95;;;4.00;;
80898;SDS011;70349;49.210;-122.932;2023-08-17T06:01:24;4.85;;;3.58;;
80898;SDS011;70349;49.210;-122.932;2023-08-17T06:03:56;4.60;;;2.35;;
80898;SDS011;70349;49.210;-122.932;2023-08-17T06:06:22;7.25;;;4.22;;
80898;SDS011;70349;49.210;-122.932;2023-08-17T06:08:48;5.00;;;4.50;;
80898;SDS011;70349;49.210;-122.932;2023-08-17T06:11:17;6.00;;;5.40;;
80898;SDS011;70349;49.210;-122.932;2023-08-17T06:13:43;16.65;;;14.95;;
80898;SDS011;70349;49.210;-122.932;2023-08-17T06:16:09;22.65;;;16.92;;
80898;SDS011;70349;49.210;-122.932;2023-08-17T06:18:36;21.30;;;17.50;;
80898;SDS011;70349;49.210;-122.932;2023-08-17T06:21:02;17.13;;;13.73;;
80898;SDS011;70349;49.210;-122.932;2023-08-17T06:23:28;13.85;;;11.38;;
80898;SDS011;70349;49.210;-122.932;2023-08-17T06:26:00;11.15;;;9.95;;
80898;SDS011;70349;49.210;-122.932;2023-08-17T06:30:54;15.00;;;10.55;;
80898;SDS011;70349;49.210;-122.932;2023-08-17T06:33:21;15.45;;;12.05;;
80898;SDS011;70349;49.210;-122.932;2023-08-17T06:35:48;13.32;;;11.93;;
80898;SDS011;70349;49.210;-122.932;2023-08-17T06:38:14;15.27;;;12.02;;
80898;SDS011;70349;49.210;-122.932;2023-08-17T06:40:43;14.93;;;11.43;;
80898;SDS011;70349;49.210;-122.932;2023-08-17T06:43:10;12.50;;;10.57;;
80898;SDS011;70349;49.210;-122.932;2023-08-17T06:45:37;12.68;;;10.98;;
80898;SDS011;70349;49.210;-122.932;2023-08-17T06:48:03;13.65;;;9.52;;
80898;SDS011;70349;49.210;-122.932;2023-08-17T06:50:30;13.88;;;10.02;;
80898;SDS011;70349;49.210;-122.932;2023-08-17T06:52:59;11.82;;;9.02;;
80898;SDS011;70349;49.210;-122.932;2023-08-17T06:55:26;13.00;;;11.52;;
80898;SDS011;70349;49.210;-122.932;2023-08-17T06:57:52;10.20;;;9.10;;
80898;SDS011;70349;49.210;-122.932;2023-08-17T07:00:20;10.52;;;9.10;;
80898;SDS011;70349;49.210;-122.932;2023-08-17T07:02:47;10.23;;;8.27;;
80898;SDS011;70349;49.210;-122.932;2023-08-17T07:05:16;9.90;;;7.43;;
80898;SDS011;70349;49.210;-122.932;2023-08-17T07:07:43;8.48;;;7.65;;
80898;SDS011;70349;49.210;-122.932;2023-08-17T07:10:09;9.52;;;7.95;;
80898;SDS011;70349;49.210;-122.932;2023-08-17T07:12:36;10.70;;;7.97;;
80898;SDS011;70349;49.210;-122.932;2023-08-17T07:15:03;9.18;;;6.85;;
80898;SDS011;70349;49.210;-122.932;2023-08-17T07:17:31;7.85;;;6.53;;
80898;SDS011;70349;49.210;-122.932;2023-08-17T07:19:59;9.15;;;7.35;;
80898;SDS011;70349;49.210;-122.932;2023-08-17T07:22:25;10.13;;;8.60;;
80898;SDS011;70349;49.210;-122.932;2023-08-17T07:24:52;8.88;;;7.90;;
80898;SDS011;70349;49.210;-122.932;2023-08-17T07:27:21;9.85;;;7.93;;
80898;SDS011;70349;49.210;-122.932;2023-08-17T07:29:52;11.10;;;9.07;;
80898;SDS011;70349;49.210;-122.932;2023-08-17T07:32:19;8.43;;;7.47;;
80898;SDS011;70349;49.210;-122.932;2023-08-17T07:34:46;11.00;;;8.05;;
80898;SDS011;70349;49.210;-122.932;2023-08-17T07:37:13;9.75;;;6.85;;
80898;SDS011;70349;49.210;-122.932;2023-08-17T07:39:39;8.18;;;7.38;;
80898;SDS011;70349;49.210;-122.932;2023-08-17T07:42:05;8.52;;;7.63;;
80898;SDS011;70349;49.210;-122.932;2023-08-17T07:44:31;8.07;;;7.07;;
80898;SDS011;70349;49.210;-122.932;2023-08-17T07:46:59;9.73;;;6.38;;
80898;SDS011;70349;49.210;-122.932;2023-08-17T07:49:28;7.90;;;7.10;;
80898;SDS011;70349;49.210;-122.932;2023-08-17T07:51:54;10.63;;;7.32;;
80898;SDS011;70349;49.210;-122.932;2023-08-17T07:54:20;8.80;;;7.20;;
80898;SDS011;70349;49.210;-122.932;2023-08-17T07:56:47;9.13;;;6.65;;
80898;SDS011;70349;49.210;-122.932;2023-08-17T07:59:15;8.25;;;6.00;;
80898;SDS011;70349;49.210;-122.932;2023-08-17T08:01:49;8.85;;;6.00;;
80898;SDS011;70349;49.210;-122.932;2023-08-17T08:04:18;7.75;;;6.93;;
80898;SDS011;70349;49.210;-122.932;2023-08-17T08:06:44;9.40;;;8.15;;
80898;SDS011;70349;49.210;-122.932;2023-08-17T08:09:10;8.88;;;7.97;;
80898;SDS011;70349;49.210;-122.932;2023-08-17T08:11:36;8.60;;;7.68;;
80898;SDS011;70349;49.210;-122.932;2023-08-17T08:14:02;7.97;;;6.97;;
80898;SDS011;70349;49.210;-122.932;2023-08-17T08:16:34;7.65;;;6.88;;
80898;SDS011;70349;49.210;-122.932;2023-08-17T08:21:28;6.13;;;4.78;;
80898;SDS011;70349;49.210;-122.932;2023-08-17T08:23:55;7.18;;;6.47;;
80898;SDS011;70349;49.210;-122.932;2023-08-17T08:26:24;7.30;;;4.78;;
80898;SDS011;70349;49.210;-122.932;2023-08-17T08:28:53;7.20;;;5.85;;
80898;SDS011;70349;49.210;-122.932;2023-08-17T08:31:19;7.07;;;6.22;;
80898;SDS011;70349;49.210;-122.932;2023-08-17T08:33:45;6.75;;;5.93;;
80898;SDS011;70349;49.210;-122.932;2023-08-17T08:36:12;6.80;;;6.05;;
80898;SDS011;70349;49.210;-122.932;2023-08-17T08:38:40;7.57;;;5.40;;
80898;SDS011;70349;49.210;-122.932;2023-08-17T08:41:07;7.57;;;6.80;;
80898;SDS011;70349;49.210;-122.932;2023-08-17T08:43:34;8.40;;;5.50;;
80898;SDS011;70349;49.210;-122.932;2023-08-17T08:46:01;6.50;;;5.32;;
80898;SDS011;70349;49.210;-122.932;2023-08-17T08:48:27;6.28;;;5.68;;
80898;SDS011;70349;49.210;-122.932;2023-08-17T08:50:55;8.10;;;6.38;;
80898;SDS011;70349;49.210;-122.932;2023-08-17T08:53:31;7.72;;;6.93;;
80898;SDS011;70349;49.210;-122.932;2023-08-17T08:56:00;8.80;;;7.68;;
80898;SDS011;70349;49.210;-122.932;2023-08-17T08:58:27;6.95;;;5.40;;
80898;SDS011;70349;49.210;-122.932;2023-08-17T09:00:55;6.80;;;5.90;;
80898;SDS011;70349;49.210;-122.932;2023-08-17T09:03:24;6.70;;;6.10;;
80898;SDS011;70349;49.210;-122.932;2023-08-17T09:05:55;7.07;;;6.38;;
80898;SDS011;70349;49.210;-122.932;2023-08-17T09:08:27;7.05;;;5.72;;
80898;SDS011;70349;49.210;-122.932;2023-08-17T09:10:57;6.18;;;4.25;;
80898;SDS011;70349;49.210;-122.932;2023-08-17T09:13:23;7.57;;;5.10;;
80898;SDS011;70349;49.210;-122.932;2023-08-17T09:15:49;8.25;;;4.88;;
80898;SDS011;70349;49.210;-122.932;2023-08-17T09:18:19;7.05;;;5.25;;
80898;SDS011;70349;49.210;-122.932;2023-08-17T09:20:51;6.72;;;4.57;;
80898;SDS011;70349;49.210;-122.932;2023-08-17T09:23:19;7.22;;;5.28;;
80898;SDS011;70349;49.210;-122.932;2023-08-17T09:25:46;8.20;;;4.72;;
80898;SDS011;70349;49.210;-122.932;2023-08-17T09:28:15;6.55;;;5.68;;
80898;SDS011;70349;49.210;-122.932;2023-08-17T09:31:04;5.28;;;4.78;;
80898;SDS011;70349;49.210;-122.932;2023-08-17T09:33:32;5.95;;;4.50;;
80898;SDS011;70349;49.210;-122.932;2023-08-17T09:35:59;5.78;;;4.00;;
80898;SDS011;70349;49.210;-122.932;2023-08-17T09:38:28;8.32;;;4.15;;
80898;SDS011;70349;49.210;-122.932;2023-08-17T09:40:55;6.20;;;4.72;;
80898;SDS011;70349;49.210;-122.932;2023-08-17T09:43:25;6.07;;;5.00;;
80898;SDS011;70349;49.210;-122.932;2023-08-17T09:45:58;7.40;;;4.68;;
80898;SDS011;70349;49.210;-122.932;2023-08-17T09:48:27;7.22;;;4.88;;
80898;SDS011;70349;49.210;-122.932;2023-08-17T09:50:53;6.30;;;5.43;;
80898;SDS011;70349;49.210;-122.932;2023-08-17T09:53:21;5.93;;;5.13;;
80898;SDS011;70349;49.210;-122.932;2023-08-17T09:55:48;6.95;;;4.45;;
80898;SDS011;70349;49.210;-122.932;2023-08-17T09:58:17;6.35;;;4.32;;
80898;SDS011;70349;49.210;-122.932;2023-08-17T10:03:20;7.10;;;5.88;;
80898;SDS011;70349;49.210;-122.932;2023-08-17T10:05:54;6.55;;;4.72;;
80898;SDS011;70349;49.210;-122.932;2023-08-17T10:08:25;7.03;;;5.85;;
80898;SDS011;70349;49.210;-122.932;2023-08-17T10:10:54;7.88;;;5.75;;
80898;SDS011;70349;49.210;-122.932;2023-08-17T10:13:28;8.18;;;7.18;;
80898;SDS011;70349;49.210;-122.932;2023-08-17T10:16:04;7.60;;;4.63;;
80898;SDS011;70349;49.210;-122.932;2023-08-17T10:21:17;7.70;;;5.72;;
80898;SDS011;70349;49.210;-122.932;2023-08-17T10:23:51;7.45;;;6.80;;
80898;SDS011;70349;49.210;-122.932;2023-08-17T10:26:18;7.47;;;5.30;;
80898;SDS011;70349;49.210;-122.932;2023-08-17T10:28:46;6.82;;;4.78;;
80898;SDS011;70349;49.210;-122.932;2023-08-17T10:31:14;7.97;;;6.07;;
80898;SDS011;70349;49.210;-122.932;2023-08-17T10:36:12;8.38;;;4.88;;
80898;SDS011;70349;49.210;-122.932;2023-08-17T10:38:39;8.27;;;4.60;;
80898;SDS011;70349;49.210;-122.932;2023-08-17T10:43:54;7.88;;;5.35;;
80898;SDS011;70349;49.210;-122.932;2023-08-17T10:46:23;7.10;;;5.18;;
80898;SDS011;70349;49.210;-122.932;2023-08-17T10:49:00;6.38;;;5.30;;
80898;SDS011;70349;49.210;-122.932;2023-08-17T10:51:29;7.53;;;6.32;;
80898;SDS011;70349;49.210;-122.932;2023-08-17T10:53:56;8.88;;;6.43;;
80898;SDS011;70349;49.210;-122.932;2023-08-17T10:56:28;6.97;;;5.93;;
80898;SDS011;70349;49.210;-122.932;2023-08-17T10:59:02;10.23;;;5.28;;
80898;SDS011;70349;49.210;-122.932;2023-08-17T11:01:32;5.82;;;5.25;;
80898;SDS011;70349;49.210;-122.932;2023-08-17T11:04:12;6.82;;;6.13;;
80898;SDS011;70349;49.210;-122.932;2023-08-17T11:06:42;7.47;;;6.68;;
80898;SDS011;70349;49.210;-122.932;2023-08-17T11:09:11;8.35;;;7.20;;
80898;SDS011;70349;49.210;-122.932;2023-08-17T11:11:40;6.28;;;5.68;;
80898;SDS011;70349;49.210;-122.932;2023-08-17T11:14:07;6.50;;;5.90;;
80898;SDS011;70349;49.210;-122.932;2023-08-17T11:16:34;7.82;;;7.15;;
80898;SDS011;70349;49.210;-122.932;2023-08-17T11:19:00;6.53;;;5.82;;
80898;SDS011;70349;49.210;-122.932;2023-08-17T11:21:27;6.70;;;5.03;;
80898;SDS011;70349;49.210;-122.932;2023-08-17T11:23:56;5.40;;;4.90;;
80898;SDS011;70349;49.210;-122.932;2023-08-17T11:26:23;6.30;;;4.88;;
80898;SDS011;70349;49.210;-122.932;2023-08-17T11:28:49;6.78;;;6.18;;
80898;SDS011;70349;49.210;-122.932;2023-08-17T11:31:15;7.55;;;6.78;;
80898;SDS011;70349;49.210;-122.932;2023-08-17T11:33:42;9.45;;;6.78;;
80898;SDS011;70349;49.210;-122.932;2023-08-17T11:36:10;6.88;;;6.28;;
80898;SDS011;70349;49.210;-122.932;2023-08-17T11:38:38;6.53;;;5.93;;
80898;SDS011;70349;49.210;-122.932;2023-08-17T11:41:05;7.55;;;6.85;;
80898;SDS011;70349;49.210;-122.932;2023-08-17T11:43:34;4.65;;;3.80;;
80898;SDS011;70349;49.210;-122.932;2023-08-17T11:46:01;7.45;;;5.82;;
80898;SDS011;70349;49.210;-122.932;2023-08-17T11:48:28;8.20;;;7.07;;
80898;SDS011;70349;49.210;-122.932;2023-08-17T11:50:55;9.35;;;8.65;;
80898;SDS011;70349;49.210;-122.932;2023-08-17T11:55:50;7.18;;;5.85;;
80898;SDS011;70349;49.210;-122.932;2023-08-17T11:58:19;7.43;;;5.65;;
80898;SDS011;70349;49.210;-122.932;2023-08-17T12:01:02;6.90;;;6.22;;
80898;SDS011;70349;49.210;-122.932;2023-08-17T12:03:28;7.50;;;5.70;;
80898;SDS011;70349;49.210;-122.932;2023-08-17T12:05:57;7.28;;;5.97;;
80898;SDS011;70349;49.210;-122.932;2023-08-17T12:08:27;6.47;;;5.70;;
80898;SDS011;70349;49.210;-122.932;2023-08-17T12:10:53;8.05;;;6.07;;
80898;SDS011;70349;49.210;-122.932;2023-08-17T12:13:19;9.30;;;8.00;;
80898;SDS011;70349;49.210;-122.932;2023-08-17T12:15:45;12.10;;;7.97;;
80898;SDS011;70349;49.210;-122.932;2023-08-17T12:18:16;9.02;;;8.13;;
80898;SDS011;70349;49.210;-122.932;2023-08-17T12:20:51;10.57;;;6.53;;
80898;SDS011;70349;49.210;-122.932;2023-08-17T12:23:21;8.52;;;7.45;;
80898;SDS011;70349;49.210;-122.932;2023-08-17T12:25:53;8.05;;;7.13;;
80898;SDS011;70349;49.210;-122.932;2023-08-17T12:28:20;8.10;;;6.93;;
80898;SDS011;70349;49.210;-122.932;2023-08-17T12:30:47;7.65;;;6.47;;
80898;SDS011;70349;49.210;-122.932;2023-08-17T12:33:23;7.88;;;7.05;;
80898;SDS011;70349;49.210;-122.932;2023-08-17T12:35:52;7.53;;;6.82;;
80898;SDS011;70349;49.210;-122.932;2023-08-17T12:38:23;8.75;;;7.38;;
80898;SDS011;70349;49.210;-122.932;2023-08-17T12:40:52;6.38;;;5.78;;
80898;SDS011;70349;49.210;-122.932;2023-08-17T12:43:21;8.07;;;5.30;;
80898;SDS011;70349;49.210;-122.932;2023-08-17T12:45:51;6.30;;;5.65;;
80898;SDS011;70349;49.210;-122.932;2023-08-17T12:48:17;9.63;;;6.72;;
80898;SDS011;70349;49.210;-122.932;2023-08-17T12:50:46;9.05;;;8.27;;
80898;SDS011;70349;49.210;-122.932;2023-08-17T12:53:12;11.18;;;10.10;;
80898;SDS011;70349;49.210;-122.932;2023-08-17T12:55:42;9.60;;;7.55;;
80898;SDS011;70349;49.210;-122.932;2023-08-17T12:58:10;7.50;;;6.82;;
80898;SDS011;70349;49.210;-122.932;2023-08-17T13:00:39;8.05;;;5.85;;
80898;SDS011;70349;49.210;-122.932;2023-08-17T13:03:07;7.55;;;6.57;;
80898;SDS011;70349;49.210;-122.932;2023-08-17T13:05:34;6.85;;;6.05;;
80898;SDS011;70349;49.210;-122.932;2023-08-17T13:08:05;8.27;;;6.20;;
80898;SDS011;70349;49.210;-122.932;2023-08-17T13:10:31;8.07;;;6.53;;
80898;SDS011;70349;49.210;-122.932;2023-08-17T13:12:57;7.25;;;6.18;;
80898;SDS011;70349;49.210;-122.932;2023-08-17T13:15:27;8.35;;;6.90;;
80898;SDS011;70349;49.210;-122.932;2023-08-17T13:17:53;9.48;;;8.57;;
80898;SDS011;70349;49.210;-122.932;2023-08-17T13:20:22;8.13;;;7.38;;
80898;SDS011;70349;49.210;-122.932;2023-08-17T13:22:51;8.40;;;7.57;;
80898;SDS011;70349;49.210;-122.932;2023-08-17T13:25:17;7.10;;;6.40;;
80898;SDS011;70349;49.210;-122.932;2023-08-17T13:27:43;8.18;;;5.47;;
80898;SDS011;70349;49.210;-122.932;2023-08-17T13:30:09;7.25;;;6.65;;
80898;SDS011;70349;49.210;-122.932;2023-08-17T13:32:36;8.57;;;7.30;;
80898;SDS011;70349;49.210;-122.932;2023-08-17T13:35:06;7.35;;;6.63;;
80898;SDS011;70349;49.210;-122.932;2023-08-17T13:40:05;8.23;;;7.63;;
80898;SDS011;70349;49.210;-122.932;2023-08-17T13:42:31;7.15;;;6.50;;
80898;SDS011;70349;49.210;-122.932;2023-08-17T13:44:58;7.63;;;6.90;;
80898;SDS011;70349;49.210;-122.932;2023-08-17T13:47:30;8.60;;;7.70;;
80898;SDS011;70349;49.210;-122.932;2023-08-17T13:49:56;8.52;;;4.43;;
80898;SDS011;70349;49.210;-122.932;2023-08-17T13:52:25;9.35;;;7.45;;
80898;SDS011;70349;49.210;-122.932;2023-08-17T13:54:57;8.80;;;8.02;;
80898;SDS011;70349;49.210;-122.932;2023-08-17T13:57:23;8.75;;;8.05;;
80898;SDS011;70349;49.210;-122.932;2023-08-17T13:59:52;7.47;;;6.32;;
80898;SDS011;70349;49.210;-122.932;2023-08-17T14:02:18;7.03;;;6.32;;
80898;SDS011;70349;49.210;-122.932;2023-08-17T14:04:45;6.57;;;5.97;;
80898;SDS011;70349;49.210;-122.932;2023-08-17T14:07:14;7.45;;;6.10;;
80898;SDS011;70349;49.210;-122.932;2023-08-17T14:09:42;7.15;;;6.47;;
80898;SDS011;70349;49.210;-122.932;2023-08-17T14:12:09;5.65;;;5.10;;
80898;SDS011;70349;49.210;-122.932;2023-08-17T14:14:35;5.95;;;5.38;;
80898;SDS011;70349;49.210;-122.932;2023-08-17T14:17:04;7.88;;;6.78;;
80898;SDS011;70349;49.210;-122.932;2023-08-17T14:19:33;5.93;;;4.35;;
80898;SDS011;70349;49.210;-122.932;2023-08-17T14:21:59;6.78;;;4.72;;
80898;SDS011;70349;49.210;-122.932;2023-08-17T14:24:27;7.88;;;7.18;;
80898;SDS011;70349;49.210;-122.932;2023-08-17T14:26:54;9.90;;;8.38;;
80898;SDS011;70349;49.210;-122.932;2023-08-17T14:29:22;6.88;;;5.88;;
80898;SDS011;70349;49.210;-122.932;2023-08-17T14:31:48;6.75;;;5.22;;
80898;SDS011;70349;49.210;-122.932;2023-08-17T14:34:14;6.88;;;6.13;;
80898;SDS011;70349;49.210;-122.932;2023-08-17T14:36:44;7.65;;;5.82;;
80898;SDS011;70349;49.210;-122.932;2023-08-17T14:39:11;5.68;;;5.10;;
80898;SDS011;70349;49.210;-122.932;2023-08-17T14:41:40;6.45;;;5.15;;
80898;SDS011;70349;49.210;-122.932;2023-08-17T14:46:37;6.90;;;6.28;;
80898;SDS011;70349;49.210;-122.932;2023-08-17T14:49:07;7.03;;;5.50;;
80898;SDS011;70349;49.210;-122.932;2023-08-17T14:51:39;6.85;;;5.78;;
80898;SDS011;70349;49.210;-122.932;2023-08-17T14:54:08;6.57;;;5.95;;
80898;SDS011;70349;49.210;-122.932;2023-08-17T14:56:37;7.18;;;4.90;;
80898;SDS011;70349;49.210;-122.932;2023-08-17T14:59:03;6.93;;;6.38;;
80898;SDS011;70349;49.210;-122.932;2023-08-17T15:01:29;5.18;;;3.90;;
80898;SDS011;70349;49.210;-122.932;2023-08-17T15:03:59;4.75;;;4.07;;
80898;SDS011;70349;49.210;-122.932;2023-08-17T15:06:27;7.13;;;6.30;;
80898;SDS011;70349;49.210;-122.932;2023-08-17T15:08:54;5.35;;;4.85;;
80898;SDS011;70349;49.210;-122.932;2023-08-17T15:11:20;5.53;;;4.43;;